sensor_id;sensor_type;location;lat;lon;timestamp;temperature;humidity
20139;DHT22;10230;51.502;10.800;2023-05-28T07:20:30;18.60;99.90
20139;DHT22;10230;51.502;10.800;2023-05-28T07:27:48;19.00;99.90
20139;DHT22;10230;51.502;10.800;2023-05-28T07:30:14;19.10;99.90
20139;DHT22;10230;51.502;10.800;2023-05-28T08:19:01;31.60;52.40
20139;DHT22;10230;51.502;10.800;2023-05-28T08:31:13;36.90;38.80
20139;DHT22;10230;51.502;10.800;2023-05-28T08:36:04;39.30;34.20
20139;DHT22;10230;51.502;10.800;2023-05-28T08:38:31;40.40;32.00
20139;DHT22;10230;51.502;10.800;2023-05-28T08:43:23;41.50;43.00
20139;DHT22;10230;51.502;10.800;2023-05-28T08:45:51;42.00;48.70
20139;DHT22;10230;51.502;10.800;2023-05-28T08:48:17;42.20;48.20
20139;DHT22;10230;51.502;10.800;2023-05-28T09:03:03;44.40;42.20
20139;DHT22;10230;51.502;10.800;2023-05-28T09:05:36;44.50;43.20
20139;DHT22;10230;51.502;10.800;2023-05-28T09:15:25;41.90;30.60
20139;DHT22;10230;51.502;10.800;2023-05-28T09:17:50;42.30;40.60
20139;DHT22;10230;51.502;10.800;2023-05-28T09:22:42;45.50;25.20
20139;DHT22;10230;51.502;10.800;2023-05-28T09:25:08;46.10;25.50
20139;DHT22;10230;51.502;10.800;2023-05-28T09:27:37;47.80;24.10
20139;DHT22;10230;51.502;10.800;2023-05-28T09:30:03;48.10;24.40
20139;DHT22;10230;51.502;10.800;2023-05-28T09:34:57;48.80;22.80
20139;DHT22;10230;51.502;10.800;2023-05-28T09:37:23;49.20;23.40
20139;DHT22;10230;51.502;10.800;2023-05-28T09:39:59;49.00;22.90
20139;DHT22;10230;51.502;10.800;2023-05-28T09:42:25;48.50;23.10
20139;DHT22;10230;51.502;10.800;2023-05-28T09:44:50;48.30;23.20
20139;DHT22;10230;51.502;10.800;2023-05-28T09:47:16;48.70;23.20
20139;DHT22;10230;51.502;10.800;2023-05-28T09:49:42;49.00;22.90
20139;DHT22;10230;51.502;10.800;2023-05-28T09:52:09;49.20;22.50
20139;DHT22;10230;51.502;10.800;2023-05-28T09:54:35;49.50;22.70
20139;DHT22;10230;51.502;10.800;2023-05-28T09:57:02;49.90;22.50
20139;DHT22;10230;51.502;10.800;2023-05-28T09:59:30;50.10;22.20
20139;DHT22;10230;51.502;10.800;2023-05-28T10:01:59;49.70;22.00
20139;DHT22;10230;51.502;10.800;2023-05-28T10:04:32;44.30;44.90
20139;DHT22;10230;51.502;10.800;2023-05-28T10:06:59;43.70;35.80
20139;DHT22;10230;51.502;10.800;2023-05-28T10:09:26;42.10;33.40
20139;DHT22;10230;51.502;10.800;2023-05-28T10:14:30;40.20;32.30
20139;DHT22;10230;51.502;10.800;2023-05-28T10:16:57;41.30;31.10
20139;DHT22;10230;51.502;10.800;2023-05-28T10:19:23;42.60;28.50
20139;DHT22;10230;51.502;10.800;2023-05-28T10:26:42;45.30;56.80
20139;DHT22;10230;51.502;10.800;2023-05-28T10:41:21;45.00;52.30
20139;DHT22;10230;51.502;10.800;2023-05-28T10:43:48;44.50;47.80
20139;DHT22;10230;51.502;10.800;2023-05-28T10:49:14;43.70;45.80
20139;DHT22;10230;51.502;10.800;2023-05-28T10:57:18;45.10;44.70
20139;DHT22;10230;51.502;10.800;2023-05-28T11:02:23;44.50;44.80
20139;DHT22;10230;51.502;10.800;2023-05-28T11:04:55;45.00;44.70
20139;DHT22;10230;51.502;10.800;2023-05-28T11:07:40;45.60;44.40
20139;DHT22;10230;51.502;10.800;2023-05-28T11:10:09;45.90;44.50
20139;DHT22;10230;51.502;10.800;2023-05-28T11:12:38;45.30;45.10
20139;DHT22;10230;51.502;10.800;2023-05-28T11:15:06;44.10;45.40
20139;DHT22;10230;51.502;10.800;2023-05-28T11:17:39;44.20;45.10
20139;DHT22;10230;51.502;10.800;2023-05-28T11:20:23;43.90;45.00
20139;DHT22;10230;51.502;10.800;2023-05-28T11:22:54;43.10;35.70
20139;DHT22;10230;51.502;10.800;2023-05-28T11:27:53;41.70;41.10
20139;DHT22;10230;51.502;10.800;2023-05-28T11:30:19;41.50;40.00
20139;DHT22;10230;51.502;10.800;2023-05-28T11:47:33;36.00;78.50
20139;DHT22;10230;51.502;10.800;2023-05-28T12:46:53;29.80;35.40
20139;DHT22;10230;51.502;10.800;2023-05-28T12:49:19;29.40;36.10
20139;DHT22;10230;51.502;10.800;2023-05-28T12:51:44;29.20;36.70
20139;DHT22;10230;51.502;10.800;2023-05-28T12:54:10;29.20;36.70
20139;DHT22;10230;51.502;10.800;2023-05-28T18:45:38;20.50;78.50
20139;DHT22;10230;51.502;10.800;2023-05-28T18:48:04;20.50;79.40
20139;DHT22;10230;51.502;10.800;2023-05-28T18:50:30;20.30;76.10
20139;DHT22;10230;51.502;10.800;2023-05-28T18:52:56;20.20;83.90
20139;DHT22;10230;51.502;10.800;2023-05-28T19:00:14;19.90;94.60
20139;DHT22;10230;51.502;10.800;2023-05-28T19:02:39;19.80;90.50
20139;DHT22;10230;51.502;10.800;2023-05-28T19:05:05;19.70;92.60
20139;DHT22;10230;51.502;10.800;2023-05-28T19:07:31;19.60;79.70
20139;DHT22;10230;51.502;10.800;2023-05-28T19:09:58;19.50;85.20
20139;DHT22;10230;51.502;10.800;2023-05-28T19:49:03;18.10;99.90
20139;DHT22;10230;51.502;10.800;2023-05-28T19:51:29;18.30;99.90
20139;DHT22;10230;51.502;10.800;2023-05-28T19:53:55;18.20;99.90
20139;DHT22;10230;51.502;10.800;2023-05-28T19:56:21;18.20;99.50
20139;DHT22;10230;51.502;10.800;2023-05-28T20:01:13;18.00;98.90
20139;DHT22;10230;51.502;10.800;2023-05-28T20:03:39;18.00;99.90
20139;DHT22;10230;51.502;10.800;2023-05-28T20:15:51;17.90;99.90
20139;DHT22;10230;51.502;10.800;2023-05-28T20:18:19;17.90;99.90
20139;DHT22;10230;51.502;10.800;2023-05-28T20:20:46;17.80;99.90
20139;DHT22;10230;51.502;10.800;2023-05-28T20:23:12;17.70;99.90
20139;DHT22;10230;51.502;10.800;2023-05-28T20:35:29;17.40;99.90
20139;DHT22;10230;51.502;10.800;2023-05-28T20:37:57;17.50;99.90
20139;DHT22;10230;51.502;10.800;2023-05-28T20:40:27;17.40;99.90
20139;DHT22;10230;51.502;10.800;2023-05-28T20:42:53;17.40;99.90
20139;DHT22;10230;51.502;10.800;2023-05-28T20:45:20;17.40;99.90
20139;DHT22;10230;51.502;10.800;2023-05-28T20:47:46;17.40;99.90
20139;DHT22;10230;51.502;10.800;2023-05-28T20:50:12;17.40;99.90
20139;DHT22;10230;51.502;10.800;2023-05-28T20:52:38;17.40;99.90
20139;DHT22;10230;51.502;10.800;2023-05-28T20:57:44;17.10;99.90
20139;DHT22;10230;51.502;10.800;2023-05-28T21:00:11;17.30;99.90
20139;DHT22;10230;51.502;10.800;2023-05-28T21:02:37;17.20;99.90
20139;DHT22;10230;51.502;10.800;2023-05-28T21:05:03;17.30;99.90
20139;DHT22;10230;51.502;10.800;2023-05-28T21:07:29;17.20;99.90
20139;DHT22;10230;51.502;10.800;2023-05-28T21:09:54;17.20;99.90
20139;DHT22;10230;51.502;10.800;2023-05-28T21:12:20;17.10;99.90
20139;DHT22;10230;51.502;10.800;2023-05-28T21:14:45;17.10;99.90
20139;DHT22;10230;51.502;10.800;2023-05-28T21:17:11;17.10;99.90
20139;DHT22;10230;51.502;10.800;2023-05-28T21:19:37;17.00;99.90
20139;DHT22;10230;51.502;10.800;2023-05-28T21:24:28;17.10;99.90
20139;DHT22;10230;51.502;10.800;2023-05-28T21:26:54;17.10;99.90
20139;DHT22;10230;51.502;10.800;2023-05-28T21:29:20;17.00;99.90
20139;DHT22;10230;51.502;10.800;2023-05-28T21:31:45;16.90;99.90
20139;DHT22;10230;51.502;10.800;2023-05-28T21:34:11;16.90;99.90
20139;DHT22;10230;51.502;10.800;2023-05-28T21:36:37;16.80;99.90
20139;DHT22;10230;51.502;10.800;2023-05-28T21:39:03;16.90;99.90
20139;DHT22;10230;51.502;10.800;2023-05-28T21:41:28;16.80;99.90
20139;DHT22;10230;51.502;10.800;2023-05-28T21:43:54;16.80;99.90
20139;DHT22;10230;51.502;10.800;2023-05-28T21:46:19;16.80;99.90
20139;DHT22;10230;51.502;10.800;2023-05-28T21:48:45;16.80;99.90
20139;DHT22;10230;51.502;10.800;2023-05-28T21:51:11;16.80;99.90
20139;DHT22;10230;51.502;10.800;2023-05-28T21:53:37;16.80;99.90
20139;DHT22;10230;51.502;10.800;2023-05-28T21:56:03;16.80;99.90
20139;DHT22;10230;51.502;10.800;2023-05-28T22:44:58;16.30;99.90
